Daegu Air Base
RKTN : now visible

Airfield :











YOU CAN JOIN US ON...

 
LOGIN :

Register | Disclaimer

   EN    FR    IT 

 









Legend :    VFR   Marginal VFR   IFR   Intensive IFR   Very Intensive IFR
Visi :
Ceiling :
>= 8 km
>= 3000ft
5 to 8 km
1000 to 3000 ft
1500m to 5 km
500 to 1000 ft
800 to 1500m
200 to 500 ft
< 800m
< 200 ft
Symbols :   Thunderstorms  Fog  Heavy snow  Heavy precipitations  Wind > 20 kt






- Airport Elevation : 116 ft
- IATA code : TAE


RKTN - Daegu Air Base

CURRENT METAR :
  • 191500Z 08002KT 9999 FEW040 02/M04 Q1028

EXPIRED METARs :
  • 191400Z 31005KT 9999 FEW040 02/M04 Q1028
  • 191300Z 31006KT 9999 FEW040 03/M03 Q1028

TAF TAF RKTN
Valid from the 19 at 12:00 until the 20 at 18:00 UTC


191100Z 1912/2018 30010KT 9999 FEW040 TNM03/1921Z TX10/2006Z



MET'MAP, your aeronautical weather chart ! - Copyright ORBIFLY December 2007 - Disclaimer

ORBIFLY MET'MAP TEAM :

Programming & Development : Alexandra Zaïnal
Concept & Development : Baudouin d'Aumeries
Co-Development & Prog : Marc-Olivier Méhu
Technical & hardware support : Manuel Goepfert

Contact : metmap@orbifly.com




SOURCES & CREDITS :

   NOAA       Earth
Advisory